createdAt,value
2023-11-25T00:00:03.409Z,40.20
2023-11-25T00:01:03.434Z,40.23
2023-11-25T00:02:03.402Z,40.21
2023-11-25T00:03:03.351Z,40.22
2023-11-25T00:04:03.318Z,40.23
2023-11-25T00:05:06.084Z,40.20
2023-11-25T00:06:03.308Z,40.22
2023-11-25T00:07:03.295Z,40.20
2023-11-25T00:08:03.288Z,40.21
2023-11-25T00:09:03.253Z,40.19
2023-11-25T00:10:03.289Z,40.19
2023-11-25T00:11:07.665Z,40.18
2023-11-25T00:12:04.241Z,40.20
2023-11-25T00:13:03.263Z,40.18
2023-11-25T00:14:03.212Z,40.18
2023-11-25T00:15:03.193Z,40.19
2023-11-25T00:16:03.284Z,40.21
2023-11-25T00:17:03.229Z,40.18
2023-11-25T00:18:03.241Z,40.17
2023-11-25T00:19:03.200Z,40.18
2023-11-25T00:20:03.168Z,40.16
2023-11-25T00:21:03.143Z,40.13
2023-11-25T00:22:03.167Z,40.15
2023-11-25T00:23:03.127Z,40.17
2023-11-25T00:24:03.137Z,40.13
2023-11-25T00:25:03.238Z,40.11
2023-11-25T00:26:03.105Z,40.17
2023-11-25T00:27:03.099Z,40.14
2023-11-25T00:28:03.135Z,40.13
2023-11-25T00:29:03.076Z,40.12
2023-11-25T00:30:03.080Z,40.13
2023-11-25T00:31:03.156Z,40.10
2023-11-25T00:32:03.057Z,40.10
2023-11-25T00:33:03.111Z,40.10
2023-11-25T00:34:03.074Z,40.10
2023-11-25T00:35:03.008Z,40.09
2023-11-25T00:36:03.018Z,40.09
2023-11-25T00:37:05.309Z,40.09
2023-11-25T00:38:03.011Z,40.09
2023-11-25T00:39:02.978Z,40.07
2023-11-25T00:40:03.071Z,40.06
2023-11-25T00:41:02.964Z,40.06
2023-11-25T00:42:02.959Z,40.07
2023-11-25T00:43:03.000Z,40.07
2023-11-25T00:44:02.938Z,40.07
2023-11-25T00:45:02.927Z,40.07
2023-11-25T00:46:03.064Z,40.06
2023-11-25T00:47:03.047Z,40.03
2023-11-25T00:48:02.977Z,40.02
2023-11-25T00:49:02.945Z,40.04
2023-11-25T00:50:02.916Z,40.04
2023-11-25T00:51:02.877Z,40.00
2023-11-25T00:52:02.930Z,40.03
2023-11-25T00:53:02.867Z,40.00
2023-11-25T00:54:02.901Z,40.00
2023-11-25T00:55:02.882Z,40.02
2023-11-25T00:56:02.839Z,40.00
2023-11-25T00:57:02.813Z,40.00
2023-11-25T00:58:02.847Z,39.99
2023-11-25T00:59:02.802Z,39.98
2023-11-25T01:00:02.811Z,39.97
2023-11-25T01:01:02.800Z,39.99
2023-11-25T01:02:02.821Z,39.98
2023-11-25T01:03:02.803Z,39.97
2023-11-25T01:04:02.858Z,39.97
2023-11-25T01:05:02.742Z,39.98
2023-11-25T01:06:02.746Z,39.95
2023-11-25T01:07:02.796Z,39.93
2023-11-25T01:08:02.735Z,39.95
2023-11-25T01:09:02.696Z,39.97
2023-11-25T01:10:02.796Z,39.94
2023-11-25T01:11:02.684Z,39.97
2023-11-25T01:12:02.692Z,39.97
2023-11-25T01:13:02.714Z,39.97
2023-11-25T01:14:02.681Z,39.91
2023-11-25T01:15:02.647Z,39.94
2023-11-25T01:16:02.692Z,39.91
2023-11-25T01:17:02.776Z,39.94
2023-11-25T01:18:02.697Z,39.90
2023-11-25T01:19:02.626Z,39.92
2023-11-25T01:20:02.768Z,39.88
2023-11-25T01:21:02.599Z,39.88
2023-11-25T01:22:02.585Z,39.87
2023-11-25T01:23:02.651Z,39.87
2023-11-25T01:24:02.574Z,39.84
2023-11-25T01:25:02.569Z,39.86
2023-11-25T01:26:02.543Z,39.85
2023-11-25T01:27:02.542Z,39.83
2023-11-25T01:28:02.538Z,39.86
2023-11-25T01:29:02.528Z,39.85
2023-11-25T01:30:07.638Z,39.84
2023-11-25T01:31:02.519Z,39.87
2023-11-25T01:32:02.512Z,39.86
2023-11-25T01:33:02.523Z,39.83
2023-11-25T01:34:02.508Z,39.84
2023-11-25T01:35:02.526Z,39.81
2023-11-25T01:36:02.491Z,39.80
2023-11-25T01:37:02.500Z,39.77
2023-11-25T01:38:02.452Z,39.79
2023-11-25T01:39:02.432Z,39.77
2023-11-25T01:40:02.429Z,39.77
2023-11-25T01:41:05.026Z,39.79
2023-11-25T01:42:02.643Z,39.77
2023-11-25T01:43:02.629Z,39.79
2023-11-25T01:44:02.685Z,39.79
2023-11-25T01:45:02.623Z,39.77
2023-11-25T01:46:02.627Z,39.79
2023-11-25T01:47:02.615Z,39.79
2023-11-25T01:48:02.604Z,39.79
2023-11-25T01:49:02.578Z,39.77
2023-11-25T01:50:02.554Z,39.76
2023-11-25T01:51:02.573Z,39.78
2023-11-25T01:52:02.562Z,39.80
2023-11-25T01:53:02.555Z,39.78
2023-11-25T01:54:02.515Z,39.76
2023-11-25T01:55:02.515Z,39.76
2023-11-25T01:56:02.503Z,39.76
2023-11-25T01:57:02.501Z,39.79
2023-11-25T01:58:02.490Z,39.75
2023-11-25T01:59:02.489Z,39.76
2023-11-25T02:00:02.460Z,39.76
2023-11-25T02:01:02.485Z,39.75
2023-11-25T02:02:02.899Z,39.78
2023-11-25T02:03:02.619Z,39.76
2023-11-25T02:04:02.498Z,39.76
2023-11-25T02:05:02.683Z,39.75
2023-11-25T02:06:02.401Z,39.74
2023-11-25T02:07:02.492Z,39.73
2023-11-25T02:08:02.398Z,39.74
2023-11-25T02:09:02.462Z,39.74
2023-11-25T02:10:02.423Z,39.72
2023-11-25T02:11:02.477Z,39.71
2023-11-25T02:12:02.429Z,39.71
2023-11-25T02:13:02.464Z,39.71
2023-11-25T02:14:02.345Z,39.69
2023-11-25T02:15:03.330Z,39.69
2023-11-25T02:16:02.345Z,39.67
2023-11-25T02:17:02.544Z,39.66
2023-11-25T02:18:02.335Z,39.68
2023-11-25T02:19:02.292Z,39.71
2023-11-25T02:20:02.286Z,39.68
2023-11-25T02:21:02.285Z,39.69
2023-11-25T02:22:02.261Z,39.70
2023-11-25T02:23:02.267Z,39.66
2023-11-25T02:24:02.235Z,39.67
2023-11-25T02:25:02.240Z,39.66
2023-11-25T02:26:05.204Z,39.68
2023-11-25T02:27:02.225Z,39.68
2023-11-25T02:28:02.228Z,39.66
2023-11-25T02:29:02.208Z,39.66
2023-11-25T02:30:02.192Z,39.65
2023-11-25T02:31:02.200Z,39.67
2023-11-25T02:32:02.217Z,39.63
2023-11-25T02:33:02.207Z,39.64
2023-11-25T02:34:02.148Z,39.64
2023-11-25T02:35:02.190Z,39.63
2023-11-25T02:36:02.140Z,39.62
2023-11-25T02:37:02.137Z,39.63
2023-11-25T02:38:02.115Z,39.63
2023-11-25T02:39:02.836Z,39.61
2023-11-25T02:40:02.082Z,39.61
2023-11-25T02:41:02.102Z,39.60
2023-11-25T02:42:02.086Z,39.61
2023-11-25T02:43:02.086Z,39.60
2023-11-25T02:44:02.097Z,39.56
2023-11-25T02:45:02.059Z,39.55
2023-11-25T02:46:02.031Z,39.56
2023-11-25T02:47:02.043Z,39.57
2023-11-25T02:48:02.133Z,39.53
2023-11-25T02:49:02.018Z,39.51
2023-11-25T02:50:01.991Z,39.49
2023-11-25T02:51:02.024Z,39.49
2023-11-25T02:52:01.965Z,39.48
2023-11-25T02:53:01.975Z,39.47
2023-11-25T02:54:01.986Z,39.48
2023-11-25T02:55:01.957Z,39.47
2023-11-25T02:56:01.953Z,39.47
2023-11-25T02:57:01.934Z,39.52
2023-11-25T02:58:01.969Z,39.50
2023-11-25T02:59:01.929Z,39.51
2023-11-25T03:00:01.983Z,39.48
2023-11-25T03:01:01.920Z,39.48
2023-11-25T03:02:01.985Z,39.47
2023-11-25T03:03:01.944Z,39.47
2023-11-25T03:04:01.910Z,39.48
2023-11-25T03:05:01.879Z,39.49
2023-11-25T03:06:01.850Z,39.50
2023-11-25T03:07:01.840Z,39.50
2023-11-25T03:08:01.835Z,39.48
2023-11-25T03:09:01.829Z,39.46
2023-11-25T03:10:01.833Z,39.48
2023-11-25T03:11:01.806Z,39.48
2023-11-25T03:12:01.794Z,39.46
2023-11-25T03:13:01.807Z,39.44
2023-11-25T03:14:01.775Z,39.47
2023-11-25T03:15:01.808Z,39.48
2023-11-25T03:16:01.755Z,39.44
2023-11-25T03:17:01.795Z,39.46
2023-11-25T03:18:01.774Z,39.46
2023-11-25T03:19:01.747Z,39.49
2023-11-25T03:20:01.721Z,39.51
2023-11-25T03:21:01.732Z,39.51
2023-11-25T03:22:01.708Z,39.49
2023-11-25T03:23:01.688Z,39.49
2023-11-25T03:24:01.753Z,39.47
2023-11-25T03:25:01.686Z,39.49
2023-11-25T03:26:01.682Z,39.49
2023-11-25T03:27:01.661Z,39.46
2023-11-25T03:28:01.652Z,39.49
2023-11-25T03:29:01.637Z,39.49
2023-11-25T03:30:01.630Z,39.46
2023-11-25T03:31:01.617Z,39.47
2023-11-25T03:32:01.774Z,39.45
2023-11-25T03:33:01.653Z,39.46
2023-11-25T03:34:01.590Z,39.46
2023-11-25T03:35:02.068Z,39.44
2023-11-25T03:36:01.573Z,39.45
2023-11-25T03:37:01.564Z,39.46
2023-11-25T03:38:01.585Z,39.45
2023-11-25T03:39:01.536Z,39.49
2023-11-25T03:40:01.541Z,39.45
2023-11-25T03:41:01.514Z,39.44
2023-11-25T03:42:03.032Z,39.43
2023-11-25T03:43:01.513Z,39.46
2023-11-25T03:44:01.495Z,39.46
2023-11-25T03:45:01.493Z,39.46
2023-11-25T03:46:01.609Z,39.45
2023-11-25T03:47:01.560Z,39.44
2023-11-25T03:48:01.481Z,39.42
2023-11-25T03:49:01.451Z,39.42
2023-11-25T03:50:01.429Z,39.41
2023-11-25T03:51:01.478Z,39.42
2023-11-25T03:52:01.408Z,39.43
2023-11-25T03:53:01.430Z,39.42
2023-11-25T03:54:01.395Z,39.43
2023-11-25T03:55:01.397Z,39.42
2023-11-25T03:56:01.366Z,39.43
2023-11-25T03:57:01.376Z,39.43
2023-11-25T03:58:01.356Z,39.43
2023-11-25T03:59:01.362Z,39.40
2023-11-25T04:00:01.327Z,39.42
2023-11-25T04:01:01.334Z,39.40
2023-11-25T04:02:01.382Z,39.40
2023-11-25T04:03:01.364Z,39.38
2023-11-25T04:04:01.310Z,39.37
2023-11-25T04:05:01.333Z,39.38
2023-11-25T04:06:01.275Z,39.43
2023-11-25T04:07:01.283Z,39.37
2023-11-25T04:08:06.304Z,39.39
2023-11-25T04:09:01.256Z,39.39
2023-11-25T04:10:01.257Z,39.37
2023-11-25T04:11:01.279Z,39.39
2023-11-25T04:12:02.223Z,39.39
2023-11-25T04:13:01.223Z,39.36
2023-11-25T04:14:01.212Z,39.35
2023-11-25T04:15:01.192Z,39.35
2023-11-25T04:16:01.206Z,39.36
2023-11-25T04:17:01.298Z,39.32
2023-11-25T04:18:01.274Z,39.35
2023-11-25T04:19:01.165Z,39.32
2023-11-25T04:20:01.158Z,39.28
2023-11-25T04:21:01.170Z,39.28
2023-11-25T04:22:01.133Z,39.31
2023-11-25T04:23:01.117Z,39.30
2023-11-25T04:24:01.112Z,39.31
2023-11-25T04:25:01.105Z,39.30
2023-11-25T04:26:01.099Z,39.30
2023-11-25T04:27:01.099Z,39.30
2023-11-25T04:28:01.071Z,39.27
2023-11-25T04:29:01.090Z,39.27
2023-11-25T04:30:01.061Z,39.28
2023-11-25T04:31:01.067Z,39.27
2023-11-25T04:32:01.072Z,39.28
2023-11-25T04:33:01.080Z,39.26
2023-11-25T04:34:04.761Z,39.24
2023-11-25T04:35:01.025Z,39.28
2023-11-25T04:36:01.007Z,39.23
2023-11-25T04:37:00.996Z,39.27
2023-11-25T04:38:00.975Z,39.27
2023-11-25T04:39:01.008Z,39.24
2023-11-25T04:40:00.968Z,39.23
2023-11-25T04:41:01.012Z,39.19
2023-11-25T04:42:00.970Z,39.22
2023-11-25T04:43:00.944Z,39.23
2023-11-25T04:44:00.920Z,39.23
2023-11-25T04:45:00.948Z,39.24
2023-11-25T04:46:00.923Z,39.24
2023-11-25T04:47:00.969Z,39.23
2023-11-25T04:48:00.915Z,39.21
2023-11-25T04:49:00.879Z,39.22
2023-11-25T04:50:00.880Z,39.22
2023-11-25T04:51:00.871Z,39.23
2023-11-25T04:52:00.848Z,39.22
2023-11-25T04:53:00.842Z,39.23
2023-11-25T04:54:00.924Z,39.21
2023-11-25T04:55:00.822Z,39.16
2023-11-25T04:56:00.824Z,39.18
2023-11-25T04:57:00.828Z,39.17
2023-11-25T04:58:00.797Z,39.18
2023-11-25T04:59:00.809Z,39.16
2023-11-25T05:00:00.788Z,39.15
2023-11-25T05:01:00.814Z,39.14
2023-11-25T05:02:00.927Z,39.10
2023-11-25T05:03:00.796Z,39.10
2023-11-25T05:04:00.750Z,39.09
2023-11-25T05:05:00.750Z,39.06
2023-11-25T05:06:00.717Z,39.10
2023-11-25T05:07:00.715Z,39.09
2023-11-25T05:08:00.704Z,39.05
2023-11-25T05:09:00.713Z,39.03
2023-11-25T05:10:00.693Z,39.04
2023-11-25T05:11:00.691Z,39.03
2023-11-25T05:12:00.753Z,39.04
2023-11-25T05:13:00.659Z,39.04
2023-11-25T05:14:00.661Z,39.04
2023-11-25T05:15:00.639Z,39.00
2023-11-25T05:16:00.632Z,38.98
2023-11-25T05:17:00.713Z,39.00
2023-11-25T05:18:00.647Z,38.99
2023-11-25T05:19:00.605Z,38.98
2023-11-25T05:20:00.625Z,38.96
2023-11-25T05:21:00.582Z,38.96
2023-11-25T05:22:00.582Z,38.95
2023-11-25T05:23:00.572Z,38.97
2023-11-25T05:24:00.561Z,38.95
2023-11-25T05:25:00.548Z,38.93
2023-11-25T05:26:00.549Z,38.93
2023-11-25T05:27:00.525Z,38.89
2023-11-25T05:28:00.524Z,38.89
2023-11-25T05:29:00.527Z,38.92
2023-11-25T05:30:00.505Z,38.89
2023-11-25T05:31:00.508Z,38.91
2023-11-25T05:32:00.579Z,38.86
2023-11-25T05:33:00.536Z,38.86
2023-11-25T05:34:00.460Z,38.85
2023-11-25T05:35:00.487Z,38.84
2023-11-25T05:36:00.444Z,38.84
2023-11-25T05:37:00.448Z,38.83
2023-11-25T05:38:00.427Z,38.84
2023-11-25T05:39:00.425Z,38.81
2023-11-25T05:40:00.425Z,38.82
2023-11-25T05:41:00.410Z,38.82
2023-11-25T05:42:00.384Z,38.84
2023-11-25T05:43:00.395Z,38.86
2023-11-25T05:44:00.366Z,38.83
2023-11-25T05:45:00.368Z,38.79
2023-11-25T05:46:00.380Z,38.82
2023-11-25T05:47:00.375Z,38.82
2023-11-25T05:48:00.463Z,38.80
2023-11-25T05:49:00.328Z,38.81
2023-11-25T05:50:00.308Z,38.81
2023-11-25T05:51:00.302Z,38.81
2023-11-25T05:52:01.402Z,38.81
2023-11-25T05:53:00.300Z,38.82
2023-11-25T05:54:00.281Z,38.82
2023-11-25T05:55:00.270Z,38.79
2023-11-25T05:56:00.257Z,38.80
2023-11-25T05:57:00.248Z,38.75
2023-11-25T05:58:00.730Z,38.76
2023-11-25T05:59:00.249Z,38.73
2023-11-25T06:00:00.231Z,38.73
2023-11-25T06:01:00.197Z,38.75
2023-11-25T06:02:00.358Z,38.75
2023-11-25T06:03:00.208Z,38.75
2023-11-25T06:04:00.337Z,38.77
2023-11-25T06:05:00.347Z,38.76
2023-11-25T06:06:00.214Z,38.74
2023-11-25T06:07:00.172Z,38.74
2023-11-25T06:08:00.206Z,38.75
2023-11-25T06:09:00.189Z,38.76
2023-11-25T06:10:00.184Z,38.76
2023-11-25T06:11:00.158Z,38.74
2023-11-25T06:12:00.120Z,38.74
2023-11-25T06:13:00.092Z,38.74
2023-11-25T06:14:02.532Z,38.71
2023-11-25T06:15:00.184Z,38.72
2023-11-25T06:16:00.078Z,38.72
2023-11-25T06:17:00.104Z,38.71
2023-11-25T06:18:00.108Z,38.70
2023-11-25T06:19:00.050Z,38.67
2023-11-25T06:20:00.048Z,38.70
2023-11-25T06:21:00.030Z,38.71
2023-11-25T06:22:00.018Z,38.68
2023-11-25T06:23:00.039Z,38.71
2023-11-25T06:24:00.008Z,38.69
2023-11-25T06:25:00.019Z,38.66
2023-11-25T06:25:59.987Z,38.68
2023-11-25T06:26:59.967Z,38.68
2023-11-25T06:27:59.989Z,38.67
2023-11-25T06:28:59.941Z,38.66
2023-11-25T06:29:59.971Z,38.66
2023-11-25T06:30:59.930Z,38.65
2023-11-25T06:31:59.939Z,38.63
2023-11-25T06:32:59.973Z,38.62
2023-11-25T06:33:59.944Z,38.65
2023-11-25T06:34:59.928Z,38.63
2023-11-25T06:35:59.918Z,38.62
2023-11-25T06:36:59.869Z,38.66
2023-11-25T06:38:00.027Z,38.65
2023-11-25T06:38:59.917Z,38.62
2023-11-25T06:39:59.878Z,38.60
2023-11-25T06:40:59.848Z,38.61
2023-11-25T06:41:59.850Z,38.59
2023-11-25T06:42:59.817Z,38.59
2023-11-25T06:43:59.850Z,38.58
2023-11-25T06:44:59.790Z,38.57
2023-11-25T06:45:59.824Z,38.58
2023-11-25T06:46:59.917Z,38.57
2023-11-25T06:47:59.807Z,38.57
2023-11-25T06:48:59.753Z,38.57
2023-11-25T06:49:59.773Z,38.56
2023-11-25T06:50:59.847Z,38.56
2023-11-25T06:51:59.741Z,38.54
2023-11-25T06:52:59.754Z,38.54
2023-11-25T06:53:59.721Z,38.50
2023-11-25T06:54:59.725Z,38.52
2023-11-25T06:55:59.878Z,38.51
2023-11-25T06:56:59.690Z,38.52
2023-11-25T06:57:59.681Z,38.53
2023-11-25T06:58:59.665Z,38.53
2023-11-25T06:59:59.681Z,38.50
2023-11-25T07:00:59.688Z,38.51
2023-11-25T07:01:59.755Z,38.50
2023-11-25T07:02:59.656Z,38.49
2023-11-25T07:03:59.638Z,38.48
2023-11-25T07:04:59.629Z,38.47
2023-11-25T07:05:59.622Z,38.47
2023-11-25T07:06:59.604Z,38.48
2023-11-25T07:07:59.594Z,38.49
2023-11-25T07:08:59.582Z,38.48
2023-11-25T07:09:59.570Z,38.45
2023-11-25T07:10:59.585Z,38.44
2023-11-25T07:11:59.568Z,38.43
2023-11-25T07:12:59.532Z,38.44
2023-11-25T07:13:59.530Z,38.42
2023-11-25T07:14:59.518Z,38.42
2023-11-25T07:15:59.533Z,38.40
2023-11-25T07:16:59.551Z,38.40
2023-11-25T07:17:59.709Z,38.42
2023-11-25T07:18:59.507Z,38.39
2023-11-25T07:19:59.482Z,38.37
2023-11-25T07:20:59.467Z,38.40
2023-11-25T07:21:59.453Z,38.41
2023-11-25T07:22:59.459Z,38.39
2023-11-25T07:23:59.436Z,38.38
2023-11-25T07:24:59.443Z,38.40
2023-11-25T07:25:59.515Z,38.42
2023-11-25T07:26:59.418Z,38.39
2023-11-25T07:27:59.400Z,38.36
2023-11-25T07:28:59.403Z,38.36
2023-11-25T07:29:59.378Z,38.37
2023-11-25T07:30:59.412Z,38.35
2023-11-25T07:31:59.416Z,38.37
2023-11-25T07:32:59.397Z,38.36
2023-11-25T07:33:59.335Z,38.40
2023-11-25T07:34:59.386Z,38.37
2023-11-25T07:35:59.332Z,38.36
2023-11-25T07:36:59.328Z,38.35
2023-11-25T07:37:59.323Z,38.36
2023-11-25T07:38:59.293Z,38.36
2023-11-25T07:39:59.313Z,38.34
2023-11-25T07:40:59.305Z,38.33
2023-11-25T07:41:59.489Z,38.32
2023-11-25T07:42:59.258Z,38.34
2023-11-25T07:43:59.339Z,38.31
2023-11-25T07:44:59.233Z,38.32
2023-11-25T07:45:59.254Z,38.32
2023-11-25T07:46:59.292Z,38.30
2023-11-25T07:47:59.260Z,38.31
2023-11-25T07:48:59.194Z,38.30
2023-11-25T07:49:59.205Z,38.28
2023-11-25T07:50:59.207Z,38.29
2023-11-25T07:51:59.195Z,38.31
2023-11-25T07:52:59.223Z,38.29
2023-11-25T07:53:59.180Z,38.28
2023-11-25T07:54:59.153Z,38.25
2023-11-25T07:55:59.221Z,38.27
2023-11-25T07:56:59.181Z,38.29
2023-11-25T07:57:59.128Z,38.26
2023-11-25T07:59:02.051Z,38.26
2023-11-25T07:59:59.102Z,38.26
2023-11-25T08:00:59.107Z,38.25
2023-11-25T08:01:59.215Z,38.25
2023-11-25T08:02:59.248Z,38.23
2023-11-25T08:03:59.146Z,38.27
2023-11-25T08:04:59.078Z,38.26
2023-11-25T08:05:59.059Z,38.24
2023-11-25T08:06:59.045Z,38.24
2023-11-25T08:07:59.153Z,38.22
2023-11-25T08:08:59.041Z,38.24
2023-11-25T08:09:59.031Z,38.19
2023-11-25T08:10:59.034Z,38.21
2023-11-25T08:11:59.003Z,38.22
2023-11-25T08:13:00.826Z,38.20
2023-11-25T08:13:59.034Z,38.20
2023-11-25T08:14:58.961Z,38.21
2023-11-25T08:15:59.049Z,38.20
2023-11-25T08:16:58.981Z,38.15
2023-11-25T08:17:58.981Z,38.15
2023-11-25T08:18:58.925Z,38.19
2023-11-25T08:19:58.952Z,38.18
2023-11-25T08:20:58.906Z,38.20
2023-11-25T08:21:58.917Z,38.18
2023-11-25T08:22:58.989Z,38.19
2023-11-25T08:23:58.883Z,38.21
2023-11-25T08:24:58.865Z,38.16
2023-11-25T08:25:58.921Z,38.16
2023-11-25T08:26:58.848Z,38.13
2023-11-25T08:27:58.857Z,38.13
2023-11-25T08:28:58.862Z,38.15
2023-11-25T08:29:58.839Z,38.15
2023-11-25T08:30:58.815Z,38.13
2023-11-25T08:31:58.894Z,38.13
2023-11-25T08:33:04.002Z,38.13
2023-11-25T08:33:58.788Z,38.13
2023-11-25T08:34:58.790Z,38.12
2023-11-25T08:35:58.770Z,38.09
2023-11-25T08:36:58.773Z,38.09
2023-11-25T08:37:58.770Z,38.08
2023-11-25T08:38:58.756Z,38.10
2023-11-25T08:39:58.764Z,38.09
2023-11-25T08:40:58.736Z,38.07
2023-11-25T08:41:58.719Z,38.05
2023-11-25T08:42:58.693Z,38.05
2023-11-25T08:43:58.748Z,38.08
2023-11-25T08:44:58.699Z,38.07
2023-11-25T08:45:58.741Z,38.06
2023-11-25T08:46:58.717Z,38.04
2023-11-25T08:47:58.674Z,38.00
2023-11-25T08:48:58.689Z,38.03
2023-11-25T08:49:58.700Z,38.04
2023-11-25T08:50:58.646Z,38.03
2023-11-25T08:51:58.629Z,38.05
2023-11-25T08:52:58.632Z,38.03
2023-11-25T08:53:58.621Z,38.03
2023-11-25T08:54:58.590Z,38.01
2023-11-25T08:55:58.610Z,38.00
2023-11-25T08:56:58.581Z,37.98
2023-11-25T08:57:58.571Z,37.97
2023-11-25T08:59:06.231Z,37.98
2023-11-25T08:59:59.572Z,38.00
2023-11-25T09:00:58.555Z,37.97
2023-11-25T09:01:58.577Z,38.00
2023-11-25T09:02:58.590Z,38.02
2023-11-25T09:03:58.525Z,37.98
2023-11-25T09:05:06.593Z,37.97
2023-11-25T09:05:59.539Z,37.98
2023-11-25T09:06:58.494Z,37.97
2023-11-25T09:07:58.544Z,37.96
2023-11-25T09:08:58.466Z,37.96
2023-11-25T09:09:58.483Z,37.97
2023-11-25T09:10:58.482Z,37.96
2023-11-25T09:11:58.448Z,37.97
2023-11-25T09:12:58.424Z,37.97
2023-11-25T09:13:58.476Z,37.95
2023-11-25T09:14:58.412Z,37.94
2023-11-25T09:15:58.436Z,37.95
2023-11-25T09:16:58.427Z,37.94
2023-11-25T09:17:58.438Z,37.93
2023-11-25T09:19:00.523Z,37.92
2023-11-25T09:19:58.402Z,37.93
2023-11-25T09:20:58.386Z,37.93
2023-11-25T09:21:58.349Z,37.90
2023-11-25T09:22:58.421Z,37.92
2023-11-25T09:23:58.337Z,37.90
2023-11-25T09:24:58.313Z,37.89
2023-11-25T09:25:58.355Z,37.89
2023-11-25T09:26:58.312Z,37.88
2023-11-25T09:27:58.290Z,37.86
2023-11-25T09:28:58.398Z,37.91
2023-11-25T09:29:58.276Z,37.90
2023-11-25T09:30:58.254Z,37.88
2023-11-25T09:31:58.271Z,37.89
2023-11-25T09:32:58.314Z,37.87
2023-11-25T09:33:58.363Z,37.87
2023-11-25T09:34:58.270Z,37.86
2023-11-25T09:35:58.222Z,37.86
2023-11-25T09:36:58.216Z,37.86
2023-11-25T09:37:58.280Z,37.87
2023-11-25T09:38:58.194Z,37.84
2023-11-25T09:39:58.210Z,37.85
2023-11-25T09:40:58.196Z,37.84
2023-11-25T09:41:58.189Z,37.83
2023-11-25T09:42:58.171Z,37.86
2023-11-25T09:43:58.238Z,37.84
2023-11-25T09:44:58.125Z,37.84
2023-11-25T09:45:58.173Z,37.85
2023-11-25T09:46:58.184Z,37.83
2023-11-25T09:47:58.132Z,37.84
2023-11-25T09:48:58.096Z,37.84
2023-11-25T09:49:58.164Z,37.84
2023-11-25T09:50:58.079Z,37.82
2023-11-25T09:51:58.084Z,37.83
2023-11-25T09:52:58.099Z,37.83
2023-11-25T09:53:58.073Z,37.84
2023-11-25T09:54:58.035Z,37.81
2023-11-25T09:55:58.115Z,37.80
2023-11-25T09:56:58.025Z,37.81
2023-11-25T09:57:58.096Z,37.82
2023-11-25T09:58:58.079Z,37.79
2023-11-25T09:59:57.991Z,37.78
2023-11-25T10:00:58.006Z,37.79
2023-11-25T10:01:58.105Z,37.78
2023-11-25T10:03:19.170Z,37.79
2023-11-25T10:03:58.002Z,37.90
2023-11-25T10:04:57.948Z,37.85
2023-11-25T10:05:57.945Z,37.83
2023-11-25T10:06:57.933Z,37.81
2023-11-25T10:07:57.957Z,37.78
2023-11-25T10:08:57.914Z,37.80
2023-11-25T10:09:57.948Z,37.81
2023-11-25T10:10:57.921Z,37.79
2023-11-25T10:11:57.912Z,37.77
2023-11-25T10:12:57.890Z,37.79
2023-11-25T10:14:01.861Z,37.79
2023-11-25T10:14:57.849Z,37.80
2023-11-25T10:15:57.889Z,37.80
2023-11-25T10:16:57.901Z,37.80
2023-11-25T10:17:57.856Z,37.76
2023-11-25T10:18:57.852Z,37.80
2023-11-25T10:19:57.831Z,37.77
2023-11-25T10:20:57.819Z,37.79
2023-11-25T10:21:57.813Z,37.78
2023-11-25T10:22:58.183Z,37.77
2023-11-25T10:23:57.774Z,37.79
2023-11-25T10:24:57.801Z,37.76
2023-11-25T10:25:57.772Z,37.76
2023-11-25T10:26:57.770Z,37.78
2023-11-25T10:27:57.912Z,37.75
2023-11-25T10:28:57.770Z,37.74
2023-11-25T10:29:57.714Z,37.77
2023-11-25T10:30:57.714Z,37.76
2023-11-25T10:31:57.752Z,37.80
2023-11-25T10:32:58.217Z,37.74
2023-11-25T10:33:57.702Z,37.75
2023-11-25T10:34:57.678Z,37.71
2023-11-25T10:35:57.663Z,37.73
2023-11-25T10:36:57.655Z,37.74
2023-11-25T10:37:57.759Z,37.74
2023-11-25T10:38:57.669Z,37.74
2023-11-25T10:39:57.640Z,37.73
2023-11-25T10:40:57.660Z,37.72
2023-11-25T10:41:57.634Z,37.71
2023-11-25T10:42:57.596Z,37.71
2023-11-25T10:43:57.603Z,37.72
2023-11-25T10:45:02.675Z,37.71
2023-11-25T10:45:57.598Z,37.72
2023-11-25T10:46:57.621Z,37.72
2023-11-25T10:47:57.622Z,37.70
2023-11-25T10:48:57.582Z,37.69
2023-11-25T10:49:57.549Z,37.68
2023-11-25T10:50:57.551Z,37.66
2023-11-25T10:51:57.516Z,37.69
2023-11-25T10:52:57.563Z,37.68
2023-11-25T10:53:57.514Z,37.69
2023-11-25T10:54:57.496Z,37.69
2023-11-25T10:55:57.572Z,37.67
2023-11-25T10:56:57.477Z,37.69
2023-11-25T10:57:57.456Z,37.67
2023-11-25T10:58:57.594Z,37.67
2023-11-25T10:59:57.457Z,37.64
2023-11-25T11:00:57.463Z,37.66
2023-11-25T11:01:57.496Z,37.64
2023-11-25T11:02:57.538Z,37.64
2023-11-25T11:03:57.435Z,37.70
2023-11-25T11:04:57.456Z,37.68
2023-11-25T11:05:57.409Z,37.64
2023-11-25T11:06:57.393Z,37.64
2023-11-25T11:07:57.395Z,37.65
2023-11-25T11:08:57.393Z,37.66
2023-11-25T11:09:57.387Z,37.62
2023-11-25T11:10:57.363Z,37.63
2023-11-25T11:11:57.345Z,37.64
2023-11-25T11:12:57.350Z,37.64
2023-11-25T11:13:57.333Z,37.65
2023-11-25T11:14:57.334Z,37.64
2023-11-25T11:15:57.336Z,37.61
2023-11-25T11:16:57.370Z,37.62
2023-11-25T11:17:57.370Z,37.61
2023-11-25T11:18:57.343Z,37.61
2023-11-25T11:19:57.290Z,37.63
2023-11-25T11:20:57.262Z,37.61
2023-11-25T11:21:57.279Z,37.62
2023-11-25T11:22:57.301Z,37.60
2023-11-25T11:23:57.239Z,37.59
2023-11-25T11:24:57.228Z,37.59
2023-11-25T11:25:57.237Z,37.59
2023-11-25T11:26:57.207Z,37.61
2023-11-25T11:27:57.186Z,37.61
2023-11-25T11:28:57.197Z,37.58
2023-11-25T11:29:57.185Z,37.59
2023-11-25T11:30:57.171Z,37.57
2023-11-25T11:31:57.234Z,37.61
2023-11-25T11:32:57.170Z,37.60
2023-11-25T11:33:57.135Z,37.60
2023-11-25T11:34:57.176Z,37.59
2023-11-25T11:35:57.110Z,37.60
2023-11-25T11:36:57.127Z,37.59
2023-11-25T11:37:58.983Z,37.59
2023-11-25T11:38:57.091Z,37.60
2023-11-25T11:39:57.077Z,37.57
2023-11-25T11:40:57.128Z,37.58
2023-11-25T11:41:57.066Z,37.56
2023-11-25T11:42:57.067Z,37.55
2023-11-25T11:43:57.122Z,37.55
2023-11-25T11:44:57.466Z,37.54
2023-11-25T11:45:57.054Z,37.55
2023-11-25T11:46:57.079Z,37.54
2023-11-25T11:47:57.121Z,37.57
2023-11-25T11:48:57.000Z,37.56
2023-11-25T11:49:57.038Z,37.53
2023-11-25T11:50:56.999Z,37.53
2023-11-25T11:51:56.970Z,37.56
2023-11-25T11:52:57.035Z,37.56
2023-11-25T11:53:56.944Z,37.52
2023-11-25T11:54:57.012Z,37.52
2023-11-25T11:55:57.001Z,37.53
2023-11-25T11:56:56.935Z,37.52
2023-11-25T11:57:56.908Z,37.52
2023-11-25T11:58:56.952Z,37.60
2023-11-25T11:59:56.940Z,37.59
2023-11-25T12:00:56.901Z,37.58
2023-11-25T12:01:56.969Z,37.62
2023-11-25T12:02:56.874Z,37.61
2023-11-25T12:03:56.887Z,37.63
2023-11-25T12:04:56.908Z,37.64
2023-11-25T12:05:56.832Z,37.64
2023-11-25T12:06:56.846Z,37.63
2023-11-25T12:07:56.882Z,37.62
2023-11-25T12:08:56.807Z,37.65
2023-11-25T12:09:56.815Z,37.68
2023-11-25T12:10:56.837Z,37.70
2023-11-25T12:11:56.770Z,37.72
2023-11-25T12:12:56.782Z,37.73
2023-11-25T12:13:56.796Z,37.73
2023-11-25T12:14:56.754Z,37.73
2023-11-25T12:15:56.749Z,37.75
2023-11-25T12:16:56.790Z,37.76
2023-11-25T12:17:56.777Z,37.78
2023-11-25T12:18:56.742Z,37.75
2023-11-25T12:19:56.719Z,37.76
2023-11-25T12:20:56.706Z,37.79
2023-11-25T12:21:56.691Z,37.78
2023-11-25T12:22:56.727Z,37.82
2023-11-25T12:23:56.672Z,37.81
2023-11-25T12:24:56.679Z,37.82
2023-11-25T12:25:56.685Z,37.79
2023-11-25T12:26:56.654Z,37.81
2023-11-25T12:27:56.638Z,37.83
2023-11-25T12:28:56.658Z,37.84
2023-11-25T12:29:56.617Z,37.86
2023-11-25T12:30:56.626Z,37.84
2023-11-25T12:31:56.685Z,37.85
2023-11-25T12:32:56.726Z,37.89
2023-11-25T12:33:56.572Z,37.87
2023-11-25T12:34:56.696Z,37.89
2023-11-25T12:35:56.550Z,37.88
2023-11-25T12:36:56.555Z,37.90
2023-11-25T12:38:07.306Z,37.92
2023-11-25T12:38:57.534Z,37.94
2023-11-25T12:39:56.566Z,37.96
2023-11-25T12:40:56.568Z,37.94
2023-11-25T12:41:56.502Z,37.95
2023-11-25T12:42:56.496Z,37.93
2023-11-25T12:43:56.516Z,37.96
2023-11-25T12:44:56.492Z,37.98
2023-11-25T12:45:56.554Z,37.97
2023-11-25T12:46:56.496Z,37.98
2023-11-25T12:47:56.524Z,37.96
2023-11-25T12:48:57.419Z,37.96
2023-11-25T12:49:56.442Z,37.97
2023-11-25T12:51:01.336Z,38.01
2023-11-25T12:51:56.420Z,38.04